createdAt,value
2019-03-03T00:00:25.321Z,4.20
2019-03-03T00:05:19.906Z,3.97
2019-03-03T00:10:14.735Z,4.03
2019-03-03T00:15:12.218Z,4.03
2019-03-03T00:20:11.056Z,4.07
2019-03-03T00:25:08.624Z,4.47
2019-03-03T00:30:03.583Z,3.77
2019-03-03T00:34:58.152Z,3.73
2019-03-03T00:39:54.384Z,4.10
2019-03-03T00:44:50.595Z,3.77
2019-03-03T00:49:58.560Z,4.07
2019-03-03T00:55:09.472Z,3.83
2019-03-03T01:00:08.720Z,4.20
2019-03-03T01:05:16.962Z,4.10
2019-03-03T01:10:29.271Z,4.03
2019-03-03T01:15:28.337Z,3.93
2019-03-03T01:20:24.563Z,4.43
2019-03-03T01:25:19.139Z,3.77
2019-03-03T01:30:14.461Z,3.77
2019-03-03T01:35:11.450Z,4.10
2019-03-03T01:40:10.779Z,4.30
2019-03-03T01:45:15.019Z,3.50
2019-03-03T01:50:12.872Z,3.70
2019-03-03T01:55:13.308Z,3.77
2019-03-03T02:00:28.936Z,3.70
2019-03-03T02:05:23.691Z,3.83
2019-03-03T02:10:21.819Z,3.83
2019-03-03T02:15:16.660Z,3.67
2019-03-03T02:20:12.863Z,3.97
2019-03-03T02:25:15.419Z,4.20
2019-03-03T02:30:17.120Z,4.20
2019-03-03T02:35:11.757Z,4.07
2019-03-03T02:40:16.782Z,4.40
2019-03-03T02:45:15.064Z,4.33
2019-03-03T02:50:15.292Z,4.10
2019-03-03T02:55:13.566Z,4.20
2019-03-03T03:00:23.418Z,4.20
2019-03-03T03:05:22.125Z,4.20
2019-03-03T03:10:27.668Z,4.20
2019-03-03T03:15:26.742Z,3.80
2019-03-03T03:20:31.869Z,4.40
2019-03-03T03:25:44.444Z,3.83
2019-03-03T03:30:40.654Z,4.03
2019-03-03T03:35:36.889Z,4.13
2019-03-03T03:40:34.085Z,3.93
2019-03-03T03:45:39.127Z,4.17
2019-03-03T03:50:47.329Z,4.63
2019-03-03T03:55:53.264Z,4.50
2019-03-03T04:01:01.468Z,4.30
2019-03-03T04:06:07.976Z,3.70
2019-03-03T04:11:19.194Z,3.53
2019-03-03T04:16:18.077Z,3.50
2019-03-03T04:21:22.774Z,3.63
2019-03-03T04:26:27.967Z,3.70
2019-03-03T04:31:24.169Z,3.30
2019-03-03T04:36:23.101Z,3.10
2019-03-03T04:41:22.317Z,3.30
2019-03-03T04:46:27.483Z,3.57
2019-03-03T04:51:27.299Z,3.17
2019-03-03T04:56:23.522Z,3.10
2019-03-03T05:01:31.518Z,2.90
2019-03-03T05:06:33.573Z,2.80
2019-03-03T05:12:19.292Z,3.00
2019-03-03T05:17:18.154Z,3.20
2019-03-03T05:22:12.739Z,4.00
2019-03-03T05:27:07.302Z,2.83
2019-03-03T05:32:01.900Z,2.90
2019-03-03T05:36:56.478Z,2.83
2019-03-03T05:41:51.126Z,3.00
2019-03-03T05:46:45.696Z,2.93
2019-03-03T05:51:40.358Z,3.03
2019-03-03T05:56:34.914Z,2.83
2019-03-03T06:01:29.505Z,2.60
2019-03-03T06:06:24.071Z,3.00
2019-03-03T06:11:18.657Z,3.17
2019-03-03T06:16:13.225Z,2.73
2019-03-03T06:21:07.890Z,2.57
2019-03-03T06:26:02.467Z,2.50
2019-03-03T06:30:57.055Z,2.53
2019-03-03T06:35:52.838Z,2.23
2019-03-03T06:40:47.705Z,2.33
2019-03-03T06:45:42.262Z,2.20
2019-03-03T06:50:36.853Z,2.40
2019-03-03T06:55:31.431Z,2.20
2019-03-03T07:00:26.026Z,2.40
2019-03-03T07:05:20.600Z,2.50
2019-03-03T07:10:15.616Z,2.60
2019-03-03T07:15:16.572Z,2.80
2019-03-03T07:20:13.758Z,2.50
2019-03-03T07:25:12.498Z,2.60
2019-03-03T07:30:15.670Z,2.70
2019-03-03T07:35:10.253Z,2.47
2019-03-03T07:40:07.349Z,2.50
2019-03-03T07:45:01.917Z,2.43
2019-03-03T07:49:56.503Z,2.90
2019-03-03T07:54:51.070Z,2.90
2019-03-03T07:59:45.666Z,2.53
2019-03-03T08:04:40.251Z,2.50
2019-03-03T08:09:34.843Z,3.23
2019-03-03T08:14:29.452Z,2.87
2019-03-03T08:19:24.078Z,2.70
2019-03-03T08:24:18.637Z,3.20
2019-03-03T08:29:13.287Z,3.00
2019-03-03T08:34:07.849Z,2.90
2019-03-03T08:39:02.450Z,2.80
2019-03-03T08:43:58.680Z,2.93
2019-03-03T08:49:06.408Z,3.20
2019-03-03T08:54:03.571Z,3.23
2019-03-03T08:59:00.791Z,2.60
2019-03-03T09:04:13.259Z,2.60
2019-03-03T09:09:26.765Z,2.63
2019-03-03T09:14:39.107Z,2.73
2019-03-03T09:19:50.270Z,2.53
2019-03-03T09:24:46.499Z,2.93
2019-03-03T09:29:42.737Z,2.83
2019-03-03T09:34:56.742Z,2.80
2019-03-03T09:40:09.720Z,2.83
2019-03-03T09:45:07.700Z,2.90
2019-03-03T09:50:06.407Z,2.83
2019-03-03T09:55:08.071Z,2.73
2019-03-03T10:00:04.407Z,2.90
2019-03-03T10:05:00.631Z,3.27
2019-03-03T10:10:02.625Z,2.70
2019-03-03T10:15:14.992Z,2.80
2019-03-03T10:20:19.736Z,2.93
2019-03-03T10:25:25.960Z,3.10
2019-03-03T10:30:22.178Z,3.03
2019-03-03T10:35:21.217Z,2.87
2019-03-03T10:40:20.807Z,2.87
2019-03-03T10:45:17.039Z,3.00
2019-03-03T10:50:30.088Z,2.97
2019-03-03T10:55:26.884Z,3.20
2019-03-03T11:00:30.114Z,3.03
2019-03-03T11:05:29.317Z,3.10
2019-03-03T11:10:28.498Z,2.73
2019-03-03T11:15:30.462Z,2.70
2019-03-03T11:20:30.666Z,3.03
2019-03-03T11:25:26.909Z,3.03
2019-03-03T11:30:28.566Z,3.03
2019-03-03T11:35:41.057Z,2.70
2019-03-03T11:40:39.781Z,2.70
2019-03-03T11:45:39.054Z,2.70
2019-03-03T11:50:42.416Z,2.60
2019-03-03T11:55:38.602Z,2.83
2019-03-03T12:00:51.129Z,2.63
2019-03-03T12:05:53.071Z,2.93
2019-03-03T12:10:52.393Z,2.80
2019-03-03T12:16:00.753Z,2.83
2019-03-03T12:21:11.977Z,2.57
2019-03-03T12:26:10.935Z,2.77
2019-03-03T12:31:10.154Z,2.53
2019-03-03T12:36:22.574Z,2.70
2019-03-03T12:41:27.821Z,2.93
2019-03-03T12:46:24.033Z,2.37
2019-03-03T12:51:28.730Z,2.63
2019-03-03T12:56:33.904Z,2.33
2019-03-03T13:01:45.871Z,2.80
2019-03-03T13:06:42.157Z,2.27
2019-03-03T13:11:38.390Z,2.97
2019-03-03T13:16:40.376Z,2.30
2019-03-03T13:21:42.698Z,2.73
2019-03-03T13:26:41.582Z,2.57
2019-03-03T13:31:54.399Z,2.20
2019-03-03T13:36:53.324Z,2.27
2019-03-03T13:41:49.627Z,2.00
2019-03-03T13:46:44.213Z,2.30
2019-03-03T13:51:38.873Z,1.87
2019-03-03T13:56:33.469Z,1.97
2019-03-03T14:01:28.211Z,2.17
2019-03-03T14:06:22.919Z,1.97
2019-03-03T14:11:20.559Z,1.70
2019-03-03T14:16:15.167Z,1.93
2019-03-03T14:21:09.915Z,1.70
2019-03-03T14:26:04.484Z,1.80
2019-03-03T14:30:59.076Z,1.60
2019-03-03T14:35:53.746Z,1.80
2019-03-03T14:40:48.346Z,1.93
2019-03-03T14:45:43.084Z,1.70
2019-03-03T14:50:37.817Z,1.50
2019-03-03T14:55:32.410Z,1.60
2019-03-03T15:00:32.333Z,2.00
2019-03-03T15:05:26.902Z,1.83
2019-03-03T15:10:21.701Z,1.53
2019-03-03T15:15:26.597Z,1.37
2019-03-03T15:20:21.337Z,1.37
2019-03-03T15:25:16.676Z,1.13
2019-03-03T15:30:23.461Z,1.00
2019-03-03T15:35:18.334Z,1.00
2019-03-03T15:40:19.885Z,0.80
2019-03-03T15:45:18.814Z,1.10
2019-03-03T15:50:15.613Z,0.83
2019-03-03T15:55:23.435Z,1.20
2019-03-03T16:00:28.327Z,1.00
2019-03-03T16:05:23.170Z,1.00
2019-03-03T16:10:26.181Z,1.30
2019-03-03T16:15:21.019Z,0.93
2019-03-03T16:20:21.939Z,0.90
2019-03-03T16:25:22.976Z,0.90
2019-03-03T16:30:23.216Z,1.00
2019-03-03T16:35:18.916Z,1.10
2019-03-03T16:40:20.648Z,0.80
2019-03-03T16:45:17.299Z,1.00
2019-03-03T16:50:15.496Z,0.90
2019-03-03T16:55:14.567Z,0.93
2019-03-03T17:00:19.515Z,1.07
2019-03-03T17:05:29.169Z,0.80
2019-03-03T17:10:23.752Z,1.10
2019-03-03T17:15:30.013Z,1.00
2019-03-03T17:20:24.607Z,1.00
2019-03-03T17:25:29.661Z,1.13
2019-03-03T17:30:28.782Z,1.47
2019-03-03T17:35:23.586Z,1.30
2019-03-03T17:40:26.808Z,1.10
2019-03-03T17:45:24.751Z,2.10
2019-03-03T17:50:30.957Z,1.90
2019-03-03T17:55:25.683Z,1.83
2019-03-03T18:00:30.075Z,2.20
2019-03-03T18:05:24.680Z,2.60
2019-03-03T18:10:19.416Z,3.70
2019-03-03T18:15:16.564Z,5.27
2019-03-03T18:20:20.859Z,4.80
2019-03-03T18:25:19.488Z,3.37
2019-03-03T18:30:20.723Z,2.73
2019-03-03T18:35:15.526Z,1.93
2019-03-03T18:40:24.554Z,2.50
2019-03-03T18:45:21.635Z,2.10
2019-03-03T18:50:20.478Z,1.87
2019-03-03T18:55:15.272Z,1.97
2019-03-03T19:00:23.212Z,1.90
2019-03-03T19:05:17.948Z,1.90
2019-03-03T19:10:22.255Z,2.00
2019-03-03T19:15:20.434Z,2.13
2019-03-03T19:20:21.665Z,1.80
2019-03-03T19:25:17.852Z,1.53
2019-03-03T19:30:24.625Z,8.47
2019-03-03T19:35:19.297Z,1.93
2019-03-03T19:40:15.313Z,2.03
2019-03-03T19:45:20.042Z,2.10
2019-03-03T19:50:16.486Z,3.50
2019-03-03T19:55:15.778Z,3.20
2019-03-03T20:00:20.920Z,2.80
2019-03-03T20:05:16.040Z,2.30
2019-03-03T20:10:14.024Z,2.10
2019-03-03T20:15:12.623Z,3.10
2019-03-03T20:20:13.950Z,2.60
2019-03-03T20:25:10.457Z,2.87
2019-03-03T20:30:08.434Z,2.67
2019-03-03T20:35:03.316Z,3.00
2019-03-03T20:39:57.918Z,3.57
2019-03-03T20:44:52.507Z,4.20
2019-03-03T20:49:47.114Z,3.73
2019-03-03T20:54:41.717Z,3.83
2019-03-03T20:59:36.304Z,3.47
2019-03-03T21:04:30.898Z,3.50
2019-03-03T21:09:25.500Z,3.73
2019-03-03T21:14:20.075Z,4.17
2019-03-03T21:19:14.665Z,4.33
2019-03-03T21:24:09.259Z,4.30
2019-03-03T21:29:03.863Z,4.20
2019-03-03T21:33:58.434Z,4.20
2019-03-03T21:38:53.028Z,4.00
2019-03-03T21:43:47.635Z,4.30
2019-03-03T21:48:42.237Z,4.23
2019-03-03T21:53:36.809Z,3.17
2019-03-03T21:58:31.410Z,2.80
2019-03-03T22:03:26.072Z,2.13
2019-03-03T22:08:20.661Z,3.80
2019-03-03T22:13:15.253Z,3.20
2019-03-03T22:18:09.854Z,3.07
2019-03-03T22:23:04.601Z,3.27
2019-03-03T22:27:59.208Z,3.40
2019-03-03T22:32:53.815Z,3.03
2019-03-03T22:37:48.389Z,2.40
2019-03-03T22:42:42.966Z,2.00
2019-03-03T22:47:37.577Z,1.93
2019-03-03T22:52:32.168Z,1.77
2019-03-03T22:57:26.775Z,1.60
2019-03-03T23:02:22.161Z,1.57
2019-03-03T23:07:30.354Z,1.80
2019-03-03T23:12:46.211Z,1.30
2019-03-03T23:17:59.867Z,1.40
2019-03-03T23:23:43.025Z,2.07
2019-03-03T23:28:37.621Z,2.40
2019-03-03T23:33:32.204Z,3.10
2019-03-03T23:38:26.787Z,2.87
2019-03-03T23:43:21.368Z,2.30
2019-03-03T23:48:16.020Z,2.40
2019-03-03T23:53:10.682Z,2.57
2019-03-03T23:58:05.390Z,2.60
